Time;durP1;ratioP1;P1;durP2;ratioP2;P2;SDS_P1;SDS_P2;PMS_P1;PMS_P2;Temp;Humidity;BMP_temperature;BMP_pressure;BME280_temperature;BME280_humidity;BME280_pressure;Samples;Min_cycle;Max_cycle;Signal;HPM_P1;HPM_P2
2021/10/11 00:02:15;;;;;;;27.23;20.90;;;;;;;4.41;64.96;101636.02;1728153;82;20422;-72
2021/10/11 00:04:41;;;;;;;35.85;23.47;;;;;;;4.32;65.23;101630.10;1708909;81;21253;-74
2021/10/11 00:07:08;;;;;;;32.48;23.25;;;;;;;4.31;65.33;101632.37;1734526;83;20937;-73
2021/10/11 00:09:35;;;;;;;33.20;23.10;;;;;;;4.39;65.33;101627.83;1723425;81;21084;-75
2021/10/11 00:12:03;;;;;;;28.80;22.70;;;;;;;4.54;65.08;101632.42;1720791;82;21001;-72
2021/10/11 00:14:30;;;;;;;29.30;22.50;;;;;;;4.55;65.04;101624.39;1728976;81;21916;-74
2021/10/11 00:16:58;;;;;;;31.97;23.03;;;;;;;4.50;65.26;101629.17;1732308;81;20969;-75
2021/10/11 00:19:23;;;;;;;31.95;23.73;;;;;;;4.47;65.40;101624.98;1721868;82;20997;-75
2021/10/11 00:21:51;;;;;;;29.60;18.93;;;;;;;4.42;65.50;101616.55;1728449;81;21427;-75
2021/10/11 00:24:17;;;;;;;36.95;23.85;;;;;;;4.40;65.59;101621.11;1736550;81;21044;-74
2021/10/11 00:26:42;;;;;;;32.28;25.32;;;;;;;4.43;65.62;101618.25;1721238;81;21527;-73
2021/10/11 00:29:08;;;;;;;31.37;25.10;;;;;;;4.42;65.47;101615.72;1730710;81;21607;-74
2021/10/11 00:31:36;;;;;;;33.97;23.10;;;;;;;4.38;65.53;101607.68;1732910;83;21069;-74
2021/10/11 00:34:02;;;;;;;34.08;23.80;;;;;;;4.37;65.74;101605.98;1733911;82;21024;-75
2021/10/11 00:36:28;;;;;;;37.75;24.67;;;;;;;4.34;65.68;101600.47;1730671;82;21545;-73
2021/10/11 00:38:55;;;;;;;34.10;21.45;;;;;;;4.29;65.71;101597.33;1726235;81;21053;-74
2021/10/11 00:41:21;;;;;;;29.42;22.82;;;;;;;4.27;65.71;101601.89;1732366;81;21038;-74
2021/10/11 00:43:47;;;;;;;28.92;22.05;;;;;;;4.38;65.59;101600.59;1733561;81;21485;-75
2021/10/11 00:46:13;;;;;;;37.08;25.00;;;;;;;4.42;65.51;101603.84;1733047;82;21058;-73
2021/10/11 00:48:39;;;;;;;37.65;25.50;;;;;;;4.38;65.66;101597.13;1719810;81;20971;-73
2021/10/11 00:51:06;;;;;;;33.38;25.60;;;;;;;4.32;65.71;101603.70;1733528;83;21839;-74
2021/10/11 00:53:33;;;;;;;34.43;25.03;;;;;;;4.26;65.94;101601.54;1733449;83;21638;-73
2021/10/11 00:56:00;;;;;;;33.03;25.07;;;;;;;4.22;66.07;101605.34;1734598;83;20961;-74
2021/10/11 00:58:27;;;;;;;29.85;24.27;;;;;;;4.15;66.19;101602.83;1735524;82;20968;-73
2021/10/11 01:00:54;;;;;;;34.38;26.55;;;;;;;4.06;66.31;101601.23;1735263;83;21664;-74
2021/10/11 01:03:20;;;;;;;34.07;24.60;;;;;;;4.00;66.60;101600.86;1734574;83;21546;-74
2021/10/11 01:05:46;;;;;;;34.35;25.75;;;;;;;3.90;66.81;101594.95;1735237;83;21049;-73
2021/10/11 01:08:13;;;;;;;33.33;24.32;;;;;;;3.87;66.93;101591.69;1734995;83;20975;-74
2021/10/11 01:10:41;;;;;;;38.13;26.07;;;;;;;3.91;66.98;101591.82;1734930;81;20970;-74
2021/10/11 01:13:07;;;;;;;35.20;26.05;;;;;;;3.87;67.22;101589.88;1709628;83;21038;-72
2021/10/11 01:15:34;;;;;;;37.47;27.20;;;;;;;3.77;67.64;101586.72;1704984;83;21046;-74
2021/10/11 01:18:00;;;;;;;39.75;26.48;;;;;;;3.68;68.00;101578.54;1702778;83;21069;-73
2021/10/11 01:20:28;;;;;;;37.58;26.68;;;;;;;3.67;68.16;101578.65;1704101;83;20981;-75
2021/10/11 01:22:54;;;;;;;32.73;27.17;;;;;;;3.65;68.54;101576.60;1713504;82;20970;-72
2021/10/11 01:25:20;;;;;;;39.05;27.22;;;;;;;3.65;68.71;101572.65;1730227;81;21107;-72
2021/10/11 01:27:47;;;;;;;43.55;28.35;;;;;;;3.63;68.56;101566.16;1733503;82;20981;-73
2021/10/11 01:30:14;;;;;;;40.67;26.55;;;;;;;3.58;68.47;101572.27;1732051;82;20931;-74
2021/10/11 01:32:45;;;;;;;37.73;24.67;;;;;;;3.56;68.38;101568.91;1731363;83;21012;-73
2021/10/11 01:35:13;;;;;;;37.63;28.07;;;;;;;3.60;68.25;101565.09;1708303;82;21031;-73
2021/10/11 01:37:39;;;;;;;36.90;26.23;;;;;;;3.62;68.36;101557.91;1701956;83;21041;-76
2021/10/11 01:40:07;;;;;;;36.45;28.90;;;;;;;3.58;68.56;101559.09;1694699;83;21072;-74
2021/10/11 01:42:34;;;;;;;42.07;27.93;;;;;;;3.51;68.74;101557.37;1686742;83;21058;-73
2021/10/11 01:45:00;;;;;;;42.20;30.95;;;;;;;3.46;69.03;101564.77;1700143;83;20989;-76
2021/10/11 01:47:27;;;;;;;39.95;29.02;;;;;;;3.39;69.08;101560.92;1704109;83;20986;-73
2021/10/11 01:49:54;;;;;;;42.70;30.07;;;;;;;3.29;69.42;101549.34;1704169;83;20957;-72
2021/10/11 01:52:23;;;;;;;56.23;38.40;;;;;;;3.20;69.68;101557.91;1702606;83;20991;-75
2021/10/11 01:54:51;;;;;;;42.97;30.20;;;;;;;3.17;69.76;101552.88;1707198;83;21476;-74
2021/10/11 01:57:18;;;;;;;44.03;28.43;;;;;;;3.27;69.79;101559.16;1704684;83;20995;-73
2021/10/11 01:59:44;;;;;;;42.53;29.70;;;;;;;3.31;69.70;101557.98;1704302;83;21593;-74
2021/10/11 02:02:11;;;;;;;52.30;34.78;;;;;;;3.27;69.80;101559.98;1707177;83;20972;-73
2021/10/11 02:04:37;;;;;;;;;;;;;;;3.24;70.02;101548.37;1705114;83;21004;-74
2021/10/11 02:07:03;;;;;;;49.63;33.60;;;;;;;3.20;70.09;101548.23;1702483;83;20141;-72
2021/10/11 02:09:29;;;;;;;49.65;35.83;;;;;;;3.08;70.36;101545.98;1724243;83;20974;-73
2021/10/11 02:11:55;;;;;;;50.25;35.88;;;;;;;3.05;70.56;101541.41;1718284;82;21106;-72
2021/10/11 02:14:22;;;;;;;44.13;34.18;;;;;;;3.00;70.73;101539.12;1708628;82;21065;-71
2021/10/11 02:16:48;;;;;;;50.28;37.98;;;;;;;2.83;70.82;101516.61;1709774;81;21037;-73
2021/10/11 02:19:14;;;;;;;49.55;34.63;;;;;;;2.92;70.81;101540.15;1716708;81;21108;-73
2021/10/11 02:21:40;;;;;;;55.52;35.03;;;;;;;2.93;70.82;101536.06;1709501;82;21084;-75
2021/10/11 02:24:06;;;;;;;46.20;32.85;;;;;;;3.00;70.75;101535.16;1707473;82;21017;-75
2021/10/11 02:26:32;;;;;;;52.80;34.30;;;;;;;3.02;70.62;101529.79;1706132;84;21101;-74
2021/10/11 02:28:58;;;;;;;52.00;35.50;;;;;;;3.01;70.79;101530.73;1708149;82;21009;-72
2021/10/11 02:31:24;;;;;;;51.05;36.17;;;;;;;2.95;70.97;101535.13;1707797;82;21041;-75
2021/10/11 02:33:51;;;;;;;51.08;38.40;;;;;;;2.91;71.21;101527.44;1705083;82;21033;-73
2021/10/11 02:36:17;;;;;;;59.85;40.58;;;;;;;2.89;71.18;101529.82;1706337;83;21084;-75
2021/10/11 02:38:44;;;;;;;58.52;38.92;;;;;;;2.84;71.26;101520.91;1707475;82;21108;-72
2021/10/11 02:41:10;;;;;;;66.30;42.03;;;;;;;2.83;71.34;101520.56;1707735;82;21031;-73
2021/10/11 02:46:17;;;;;;;55.63;40.60;;;;;;;2.77;71.37;101511.79;1766392;77;22801;-73
2021/10/11 02:48:44;;;;;;;49.08;36.63;;;;;;;2.79;71.24;101511.66;1727813;81;21184;-73
2021/10/11 02:51:11;;;;;;;58.50;39.43;;;;;;;2.88;71.00;101507.92;1723422;81;21012;-73
2021/10/11 02:53:37;;;;;;;57.20;41.23;;;;;;;2.89;70.92;101503.48;1720740;82;21130;-76
2021/10/11 02:56:03;;;;;;;50.95;36.95;;;;;;;2.81;71.07;101502.72;1717922;81;21116;-73
2021/10/11 02:58:29;;;;;;;55.52;39.63;;;;;;;2.77;71.23;101505.66;1699938;81;21139;-74
2021/10/11 03:00:55;;;;;;;52.40;39.78;;;;;;;2.70;71.33;101496.05;1676258;83;21610;-73
2021/10/11 03:03:22;;;;;;;54.60;38.42;;;;;;;2.63;71.37;101494.80;1659782;84;21578;-74
2021/10/11 03:05:48;;;;;;;60.93;41.37;;;;;;;2.59;71.43;101491.54;1663142;84;21045;-74
2021/10/11 03:08:14;;;;;;;56.88;41.10;;;;;;;2.41;71.62;101462.56;1652917;86;21304;-72
2021/10/11 03:10:40;;;;;;;58.23;39.38;;;;;;;2.57;71.51;101482.08;1656373;84;21123;-72
2021/10/11 03:13:06;;;;;;;65.32;39.42;;;;;;;2.65;71.26;101482.37;1642775;84;21014;-75
2021/10/11 03:15:32;;;;;;;52.85;37.00;;;;;;;2.67;71.23;101475.20;1680042;83;21021;-72
2021/10/11 03:17:58;;;;;;;61.18;40.48;;;;;;;2.60;71.43;101473.95;1693697;83;21554;-75
2021/10/11 03:20:24;;;;;;;53.38;39.08;;;;;;;2.55;71.68;101468.19;1661839;85;21105;-76
2021/10/11 03:22:50;;;;;;;52.95;39.55;;;;;;;2.51;71.78;101468.39;1672970;84;21371;-73
2021/10/11 03:25:16;;;;;;;53.87;40.52;;;;;;;2.50;71.85;101464.55;1666526;85;21094;-73
2021/10/11 03:27:42;;;;;;;57.23;40.00;;;;;;;2.48;71.82;101462.02;1678291;85;21098;-73
2021/10/11 03:30:09;;;;;;;58.65;39.92;;;;;;;2.47;71.82;101462.16;1689955;84;22223;-73
2021/10/11 03:32:35;;;;;;;52.50;38.67;;;;;;;2.49;71.72;101460.25;1658052;85;21183;-74
2021/10/11 03:35:04;;;;;;;53.93;37.73;;;;;;;2.16;71.53;101397.20;1662224;83;21111;-73
2021/10/11 03:37:30;;;;;;;54.17;38.50;;;;;;;2.56;71.43;101465.42;1655381;85;21042;-74
2021/10/11 03:39:56;;;;;;;51.48;37.03;;;;;;;2.48;71.61;101463.34;1658100;86;21083;-74
2021/10/11 03:42:23;;;;;;;56.70;37.87;;;;;;;2.42;71.65;101465.58;1657828;85;21570;-73
2021/10/11 03:44:49;;;;;;;61.80;40.23;;;;;;;2.30;71.66;101467.28;1658844;83;22011;-74
2021/10/11 03:47:15;;;;;;;58.35;38.80;;;;;;;2.20;71.94;101467.53;1707561;83;21558;-75
2021/10/11 03:49:42;;;;;;;54.35;37.75;;;;;;;2.12;72.22;101469.38;1707828;83;20999;-73
2021/10/11 03:52:08;;;;;;;42.62;31.60;;;;;;;2.11;72.34;101461.97;1687502;83;21023;-74
2021/10/11 03:54:34;;;;;;;42.40;31.37;;;;;;;2.20;72.37;101455.22;1683123;85;22220;-73
2021/10/11 03:57:00;;;;;;;49.77;34.75;;;;;;;2.28;72.84;101449.41;1685946;82;21008;-75
2021/10/11 03:59:26;;;;;;;50.52;35.58;;;;;;;2.30;73.14;101454.13;1674066;84;21083;-73
2021/10/11 04:01:52;;;;;;;49.67;34.78;;;;;;;2.31;72.96;101455.31;1673584;83;21064;-73
2021/10/11 04:04:20;;;;;;;50.85;34.88;;;;;;;2.30;72.70;101459.39;1682146;83;21572;-72
2021/10/11 04:06:46;;;;;;;52.00;36.33;;;;;;;2.25;72.59;101463.64;1682388;83;21013;-72
2021/10/11 04:09:13;;;;;;;47.58;32.78;;;;;;;2.20;72.62;101460.95;1682549;83;21065;-73
2021/10/11 04:11:39;;;;;;;46.43;33.03;;;;;;;2.20;72.61;101451.75;1673475;83;21096;-74
2021/10/11 04:14:05;;;;;;;43.17;32.75;;;;;;;2.27;72.51;101446.44;1645059;85;21080;-73
2021/10/11 04:16:31;;;;;;;46.15;33.75;;;;;;;2.35;72.47;101448.05;1670765;84;21504;-74
2021/10/11 04:18:57;;;;;;;46.20;34.45;;;;;;;2.35;72.59;101448.05;1670443;84;21004;-73
2021/10/11 04:21:23;;;;;;;53.83;35.35;;;;;;;2.32;72.67;101450.91;1666749;84;21100;-76
2021/10/11 04:23:49;;;;;;;43.87;34.98;;;;;;;2.27;72.72;101446.44;1662788;83;21966;-73
2021/10/11 04:26:15;;;;;;;45.75;32.83;;;;;;;2.28;72.92;101446.78;1691286;83;21092;-73
2021/10/11 04:28:41;;;;;;;47.85;31.27;;;;;;;2.28;72.80;101442.39;1666293;84;21027;-75
2021/10/11 04:31:07;;;;;;;58.02;33.18;;;;;;;2.27;72.78;101442.00;1691910;83;22212;-77
2021/10/11 04:33:33;;;;;;;47.48;30.37;;;;;;;2.30;72.71;101437.86;1695930;82;21033;-73
2021/10/11 04:36:00;;;;;;;54.35;31.40;;;;;;;2.43;72.33;101434.34;1695884;83;21080;-74
2021/10/11 04:38:26;;;;;;;47.83;32.63;;;;;;;2.52;72.84;101432.38;1673662;84;21135;-75
2021/10/11 04:40:52;;;;;;;46.55;35.05;;;;;;;2.72;73.56;101425.70;1688278;84;21041;-75
2021/10/11 04:43:18;;;;;;;41.85;31.00;;;;;;;3.08;73.37;101426.12;1667209;84;21052;-73
2021/10/11 04:45:45;;;;;;;42.58;31.73;;;;;;;3.57;72.15;101423.42;1683382;83;21069;-76
2021/10/11 04:48:11;;;;;;;44.75;34.43;;;;;;;4.12;70.38;101424.93;1692976;83;21017;-77
2021/10/11 04:50:38;;;;;;;48.33;33.55;;;;;;;4.66;68.56;101419.72;1674220;84;21037;-74
2021/10/11 04:53:06;;;;;;;52.07;32.17;;;;;;;5.21;66.78;101422.80;1682573;83;21040;-74
2021/10/11 04:55:32;;;;;;;47.13;32.53;;;;;;;5.68;65.20;101425.09;1659496;84;22149;-75
2021/10/11 04:58:00;;;;;;;;;;;;;;;6.16;63.33;101417.44;1692522;83;21521;-75
2021/10/11 05:00:27;;;;;;;53.42;31.95;;;;;;;6.69;61.47;101420.32;1643838;84;20307;-76
2021/10/11 05:02:52;;;;;;;;;;;;;;;7.13;59.98;101415.97;1671436;84;21444;-75
2021/10/11 05:05:19;;;;;;;84.10;33.97;;;;;;;7.57;58.19;101419.00;1724518;81;20217;-76
2021/10/11 05:07:45;;;;;;;44.55;32.15;;;;;;;8.01;57.04;101414.52;1709647;83;21616;-75
2021/10/11 05:10:11;;;;;;;48.35;30.70;;;;;;;8.45;55.73;101408.95;1714650;83;21094;-75
2021/10/11 05:12:37;;;;;;;48.58;33.02;;;;;;;8.88;54.33;101406.59;1686097;83;21592;-75
2021/10/11 05:15:04;;;;;;;49.98;32.30;;;;;;;9.35;53.10;101405.02;1656826;85;21121;-76
2021/10/11 05:17:30;;;;;;;46.37;32.43;;;;;;;9.76;52.08;101399.99;1690181;84;21089;-76
2021/10/11 05:19:56;;;;;;;53.02;32.83;;;;;;;10.22;50.57;101393.89;1692315;83;21022;-77
2021/10/11 05:22:23;;;;;;;49.80;32.53;;;;;;;10.67;49.48;101390.08;1687620;84;21266;-75
2021/10/11 05:24:49;;;;;;;41.37;30.97;;;;;;;11.07;48.45;101386.30;1693821;83;21030;-76
2021/10/11 05:27:15;;;;;;;42.95;31.57;;;;;;;11.44;47.57;101391.65;1696806;83;22637;-75
2021/10/11 05:29:41;;;;;;;41.50;33.28;;;;;;;11.79;46.55;101390.91;1689845;83;21120;-76
2021/10/11 05:32:08;;;;;;;43.08;30.55;;;;;;;12.08;45.63;101385.85;1677952;83;21108;-76
2021/10/11 05:34:35;;;;;;;45.98;30.27;;;;;;;12.36;45.05;101376.56;1702186;82;21094;-74
2021/10/11 05:37:01;;;;;;;;;;;;;;;12.63;44.34;101380.08;1719821;82;20986;-77
2021/10/11 05:39:27;;;;;;;37.67;31.65;;;;;;;12.90;43.87;101375.21;1717659;82;20481;-75
2021/10/11 05:41:54;;;;;;;47.95;35.03;;;;;;;13.12;43.15;101377.56;1714398;82;21555;-77
2021/10/11 05:44:20;;;;;;;43.68;33.55;;;;;;;13.34;42.82;101383.95;1719218;82;21065;-75
2021/10/11 05:46:47;;;;;;;39.33;32.23;;;;;;;13.58;42.22;101380.70;1717517;82;21117;-76
2021/10/11 05:49:14;;;;;;;49.38;34.27;;;;;;;13.81;41.85;101381.98;1716458;82;21066;-75
2021/10/11 05:51:41;;;;;;;41.35;33.53;;;;;;;14.05;41.30;101380.86;1714016;82;21057;-75
2021/10/11 05:54:07;;;;;;;40.52;31.10;;;;;;;14.25;40.67;101370.41;1717722;82;21050;-73
2021/10/11 05:56:33;;;;;;;45.12;33.38;;;;;;;14.41;40.22;101375.56;1711107;82;21394;-74
2021/10/11 05:59:02;;;;;;;48.85;33.98;;;;;;;14.62;39.60;101374.45;1715697;83;21149;-76
2021/10/11 06:01:27;;;;;;;43.23;32.40;;;;;;;14.77;38.25;101373.41;1717763;82;21021;-75
2021/10/11 06:03:53;;;;;;;46.92;32.40;;;;;;;14.86;38.38;101375.47;1704698;82;20990;-78
2021/10/11 06:06:19;;;;;;;43.02;31.93;;;;;;;14.88;37.75;101380.13;1703454;82;21081;-75
2021/10/11 06:08:46;;;;;;;50.08;33.53;;;;;;;14.53;38.06;101375.07;1701147;82;21087;-75
2021/10/11 06:11:19;;;;;;;51.15;34.73;;;;;;;13.77;39.02;101377.50;1702570;82;21027;-73
2021/10/11 06:13:45;;;;;;;34.67;30.08;;;;;;;12.98;40.79;101379.70;1706283;83;21219;-76
2021/10/11 06:16:12;;;;;;;41.45;28.83;;;;;;;12.27;41.74;101383.78;1704494;83;21707;-76
2021/10/11 06:18:39;;;;;;;34.78;26.85;;;;;;;11.62;42.64;101392.78;1699828;83;21021;-75
2021/10/11 06:21:06;;;;;;;32.93;26.07;;;;;;;11.11;43.68;101399.64;1673012;84;21044;-76
2021/10/11 06:23:33;;;;;;;36.65;27.67;;;;;;;10.70;44.34;101399.60;1702295;82;21956;-76
2021/10/11 06:26:01;;;;;;;42.43;28.73;;;;;;;10.34;45.56;101398.49;1707969;82;20986;-72
2021/10/11 06:28:27;;;;;;;36.27;26.47;;;;;;;10.06;46.52;101397.33;1693911;83;21052;-77
2021/10/11 06:30:53;;;;;;;37.83;26.42;;;;;;;9.81;46.95;101400.84;1699482;83;21038;-78
2021/10/11 06:33:21;;;;;;;34.67;25.90;;;;;;;9.68;47.62;101402.59;1704450;82;21023;-74
2021/10/11 06:37:04;;;;;;;33.07;24.00;;;;;;;9.58;47.90;101393.37;1806443;79;23043;-76
2021/10/11 06:39:32;;;;;;;35.10;27.10;;;;;;;9.42;48.22;101392.77;1806859;78;21034;-77
2021/10/11 06:41:58;;;;;;;31.97;25.93;;;;;;;9.29;48.50;101393.67;1811156;78;21072;-78
2021/10/11 06:44:26;;;;;;;36.80;26.63;;;;;;;9.20;48.77;101385.28;1790097;78;21005;-77
2021/10/11 06:46:52;;;;;;;37.80;26.85;;;;;;;9.09;49.32;101377.86;1727631;83;21556;-77
2021/10/11 06:49:18;;;;;;;32.48;25.65;;;;;;;9.02;49.72;101374.13;1704959;83;21082;-78
2021/10/11 06:51:44;;;;;;;38.67;26.57;;;;;;;8.98;50.01;101366.13;1701338;83;21085;-79
2021/10/11 06:54:10;;;;;;;47.70;29.65;;;;;;;9.04;49.94;101370.00;1708833;83;21692;-77
2021/10/11 06:56:36;;;;;;;39.53;29.85;;;;;;;9.04;49.79;101373.52;1688572;83;21053;-77
2021/10/11 06:59:02;;;;;;;38.65;27.13;;;;;;;9.07;49.91;101369.20;1685023;83;21090;-76
2021/10/11 07:01:29;;;;;;;48.83;29.67;;;;;;;9.15;49.98;101371.09;1686980;83;21030;-77
2021/10/11 07:03:56;;;;;;;65.75;33.30;;;;;;;9.20;49.90;101362.16;1702725;84;22251;-78
2021/10/11 07:06:24;;;;;;;61.53;33.53;;;;;;;9.26;49.86;101358.05;1701649;84;21390;-77
2021/10/11 07:08:51;;;;;;;58.40;30.87;;;;;;;9.33;49.71;101351.13;1675603;85;21103;-78
2021/10/11 07:11:18;;;;;;;37.97;27.30;;;;;;;9.41;49.47;101353.83;1665747;85;21031;-78
2021/10/11 07:13:44;;;;;;;38.50;28.02;;;;;;;9.41;49.32;101334.38;1672780;85;21033;-78
2021/10/11 07:16:12;;;;;;;30.77;26.03;;;;;;;9.55;49.19;101345.29;1658921;86;21118;-78
2021/10/11 07:18:38;;;;;;;38.70;29.37;;;;;;;9.65;48.81;101343.84;1672262;85;21026;-76
2021/10/11 07:21:06;;;;;;;37.15;27.90;;;;;;;9.67;48.71;101335.70;1644658;87;21102;-76
2021/10/11 07:23:34;;;;;;;37.17;28.00;;;;;;;9.72;48.63;101338.73;1651672;85;21050;-77
2021/10/11 07:26:04;;;;;;;38.13;27.87;;;;;;;9.83;48.46;101326.95;1684004;84;21119;-79
2021/10/11 07:28:31;;;;;;;33.43;28.17;;;;;;;9.92;48.21;101322.83;1678103;85;21092;-77
2021/10/11 07:30:57;;;;;;;;;;;;;;;10.01;48.21;101317.56;1682184;84;21071;-76
2021/10/11 07:33:24;;;;;;;34.57;26.77;;;;;;;10.12;48.18;101323.42;1671212;84;20139;-78
2021/10/11 07:35:51;;;;;;;36.25;26.97;;;;;;;10.15;47.91;101311.59;1631490;86;21098;-78
2021/10/11 07:38:18;;;;;;;30.87;25.73;;;;;;;10.21;47.73;101314.97;1699459;84;21075;-76
2021/10/11 07:40:45;;;;;;;35.90;24.30;;;;;;;10.30;47.41;101319.36;1692642;83;21025;-76
2021/10/11 07:43:12;;;;;;;28.17;24.40;;;;;;;10.37;46.97;101318.70;1692782;84;21904;-78
2021/10/11 07:45:38;;;;;;;30.83;22.33;;;;;;;10.44;46.76;101311.73;1689912;83;21601;-79
2021/10/11 07:48:04;;;;;;;34.38;24.82;;;;;;;10.55;46.50;101310.08;1701674;84;21527;-77
2021/10/11 07:50:30;;;;;;;;;;;;;;;10.69;46.26;101309.42;1700751;84;21016;-79
2021/10/11 07:52:57;;;;;;;24.23;18.50;;;;;;;10.84;45.62;101315.44;1692224;84;20853;-77
2021/10/11 07:55:23;;;;;;;25.68;20.40;;;;;;;10.92;45.06;101311.43;1702877;83;22284;-80
2021/10/11 07:57:49;;;;;;;28.10;21.70;;;;;;;11.04;44.93;101313.28;1721513;83;21036;-79
2021/10/11 08:00:18;;;;;;;27.45;20.05;;;;;;;11.15;44.93;101308.08;1687599;83;21085;-81
2021/10/11 08:02:47;;;;;;;26.90;18.85;;;;;;;11.28;44.74;101301.72;1690735;84;21022;-79
2021/10/11 08:05:14;;;;;;;28.43;17.40;;;;;;;11.41;44.23;101291.36;1672412;84;21035;-84
2021/10/11 08:07:42;;;;;;;22.60;17.30;;;;;;;11.55;43.83;101293.02;1694436;84;21043;-82
2021/10/11 08:10:11;;;;;;;19.77;16.77;;;;;;;11.65;43.77;101293.64;1690954;84;21912;-80
2021/10/11 08:12:37;;;;;;;16.62;14.83;;;;;;;11.78;43.59;101285.09;1720880;82;21046;-82
2021/10/11 08:15:06;;;;;;;20.48;16.57;;;;;;;11.92;42.81;101287.55;1725576;82;21427;-80
2021/10/11 08:17:32;;;;;;;17.50;14.80;;;;;;;12.01;42.05;101295.35;1719975;82;21677;-79
2021/10/11 08:19:58;;;;;;;15.72;14.05;;;;;;;12.03;42.16;101291.17;1723592;82;21020;-80
2021/10/11 08:22:24;;;;;;;22.98;14.75;;;;;;;12.06;41.99;101278.81;1718795;82;21800;-81
2021/10/11 08:24:51;;;;;;;18.67;14.38;;;;;;;12.14;41.86;101283.28;1721663;82;21065;-80
2021/10/11 08:27:19;;;;;;;15.18;12.50;;;;;;;12.21;41.56;101284.25;1717731;82;21031;-79
2021/10/11 08:29:52;;;;;;;13.65;10.75;;;;;;;12.30;41.16;101280.52;1723209;83;21043;-82
2021/10/11 08:32:21;;;;;;;18.20;12.30;;;;;;;12.37;40.90;101282.79;1722248;83;21054;-82
2021/10/11 08:34:48;;;;;;;14.87;12.13;;;;;;;12.43;40.88;101280.77;1719595;81;20955;-80
2021/10/11 08:37:14;;;;;;;15.75;12.43;;;;;;;12.50;40.75;101277.37;1740432;81;21053;-82
2021/10/11 08:39:41;;;;;;;17.17;13.05;;;;;;;12.58;40.31;101272.81;1732487;81;21026;-86
2021/10/11 08:42:07;;;;;;;;;;;;;;;12.62;40.12;101266.09;1742536;80;21026;-78
2021/10/11 08:44:33;;;;;;;14.25;12.60;;;;;;;12.64;40.03;101259.23;1740577;82;20138;-82
2021/10/11 08:46:59;;;;;;;16.07;11.03;;;;;;;12.59;40.25;101258.92;1734602;82;21113;-82
2021/10/11 08:49:26;;;;;;;12.88;11.55;;;;;;;12.65;39.85;101253.67;1740393;82;21408;-90
2021/10/11 08:51:52;;;;;;;13.05;11.00;;;;;;;12.71;39.56;101249.45;1740473;82;21070;-83
2021/10/11 08:54:18;;;;;;;13.95;11.88;;;;;;;12.77;39.52;101235.86;1744604;81;21006;-87
2021/10/11 08:56:44;;;;;;;12.98;11.65;;;;;;;12.84;39.42;101235.47;1724084;82;21077;-83
2021/10/11 08:59:12;;;;;;;15.28;11.95;;;;;;;12.88;39.71;101226.06;1729322;81;21046;-84
2021/10/11 09:01:38;;;;;;;16.20;12.50;;;;;;;12.97;39.73;101230.84;1740416;82;21009;-86
2021/10/11 09:04:17;;;;;;;;;;;;;;;13.08;39.37;101229.05;1753632;81;21000;-83
2021/10/11 09:07:03;;;;;;;14.18;11.18;;;;;;;13.15;39.15;101224.63;1719368;82;20153;-81
2021/10/11 09:09:30;;;;;;;12.58;10.70;;;;;;;13.18;39.30;101224.25;1727476;82;21038;-80
2021/10/11 09:11:56;;;;;;;11.35;10.10;;;;;;;13.31;38.55;101224.16;1724504;82;21009;-84
2021/10/11 09:14:24;;;;;;;13.53;10.90;;;;;;;13.36;38.36;101213.22;1722772;83;21324;-89
2021/10/11 09:17:04;;;;;;;15.68;10.25;;;;;;;13.43;38.17;101212.80;1708318;80;21015;-82
2021/10/11 09:19:36;;;;;;;14.68;10.95;;;;;;;13.49;38.21;101203.20;1713555;83;20990;-85
2021/10/11 09:22:04;;;;;;;10.68;9.60;;;;;;;13.57;38.25;101195.56;1718855;83;21033;-83
2021/10/11 09:24:30;;;;;;;13.88;11.00;;;;;;;13.66;38.07;101201.14;1717873;83;21010;-83
2021/10/11 09:27:00;;;;;;;12.45;10.85;;;;;;;13.72;37.69;101197.70;1702406;82;21016;-83
2021/10/11 09:29:36;;;;;;;13.58;10.15;;;;;;;13.69;37.71;101195.39;1706272;82;21568;-89
2021/10/11 09:32:07;;;;;;;;;;;;;;;13.71;37.82;101196.55;1718529;82;21934;-88
2021/10/11 09:34:35;;;;;;;13.32;9.85;;;;;;;13.77;37.55;101182.41;1722636;81;20139;-88
2021/10/11 09:37:05;;;;;;;11.28;10.18;;;;;;;13.78;37.58;101186.22;1681852;84;21070;-85
2021/10/11 09:39:36;;;;;;;10.35;9.55;;;;;;;13.82;37.44;101171.94;1682892;84;21927;-82
2021/10/11 09:42:05;;;;;;;16.25;9.68;;;;;;;13.89;37.02;101179.55;1723697;82;21017;-80
2021/10/11 09:44:32;;;;;;;13.93;9.63;;;;;;;13.94;36.65;101167.76;1712303;82;21079;-86
2021/10/11 09:47:08;;;;;;;9.78;8.65;;;;;;;13.99;36.82;101157.80;1718291;82;21050;-81
2021/10/11 09:49:30;;;;;;;9.83;8.45;;;;;;;14.04;36.22;101164.76;1715525;82;21526;-87
2021/10/11 09:51:56;;;;;;;9.38;7.95;;;;;;;14.02;36.10;101160.92;1716078;78;20986;-81
2021/10/11 09:54:23;;;;;;;8.93;8.10;;;;;;;14.03;36.39;101149.68;1726933;82;21579;-82
2021/10/11 09:56:50;;;;;;;10.00;8.10;;;;;;;14.07;36.56;101153.66;1709252;82;21151;-87
2021/10/11 09:59:16;;;;;;;8.35;7.60;;;;;;;14.16;36.33;101155.17;1647369;85;21034;-87
2021/10/11 10:01:46;;;;;;;9.35;8.43;;;;;;;14.15;36.31;101132.08;1661554;85;21061;-84
2021/10/11 10:04:20;;;;;;;9.93;8.58;;;;;;;14.35;36.07;101145.67;1654855;86;21931;-86
2021/10/11 10:06:49;;;;;;;8.43;7.62;;;;;;;14.43;36.00;101143.36;1673279;85;21047;-81
2021/10/11 10:09:18;;;;;;;9.55;7.70;;;;;;;14.50;35.92;101134.83;1674573;85;21025;-85
2021/10/11 10:11:46;;;;;;;8.58;6.80;;;;;;;14.55;35.97;101132.92;1673643;85;21664;-85
2021/10/11 10:14:24;;;;;;;11.18;7.80;;;;;;;14.55;36.04;101132.40;1721141;83;21073;-83
2021/10/11 10:16:53;;;;;;;7.22;6.05;;;;;;;14.54;35.94;101137.95;1722999;83;21012;-82
2021/10/11 10:19:25;;;;;;;9.63;6.47;;;;;;;14.44;36.05;101132.11;1703249;83;21069;-82
2021/10/11 10:21:51;;;;;;;9.50;6.55;;;;;;;14.37;36.24;101132.05;1709730;83;21013;-84
2021/10/11 10:24:26;;;;;;;7.50;6.55;;;;;;;14.40;36.17;101131.14;1721226;83;21974;-92
2021/10/11 10:27:09;;;;;;;8.65;7.85;;;;;;;14.42;36.24;101120.23;1728057;80;20975;-88
2021/10/11 10:29:49;;;;;;;10.15;6.42;;;;;;;14.35;36.28;101097.39;1723287;83;21694;-82
2021/10/11 10:32:18;;;;;;;9.65;6.53;;;;;;;14.54;36.27;101123.20;1718751;83;21812;-79
2021/10/11 10:34:48;;;;;;;13.50;8.25;;;;;;;14.58;36.07;101110.59;1723746;82;21022;-76
2021/10/11 10:37:15;;;;;;;9.45;6.47;;;;;;;14.61;36.14;101110.70;1717346;82;21449;-77
2021/10/11 10:39:48;;;;;;;;;;;;;;;14.64;36.07;101106.81;1736203;82;21035;-79
2021/10/11 10:42:27;;;;;;;7.40;6.50;;;;;;;14.63;36.18;101104.63;1733642;82;20425;-80
2021/10/11 10:44:56;;;;;;;9.68;7.35;;;;;;;14.59;36.31;101106.86;1724795;82;21811;-76
2021/10/11 10:47:37;;;;;;;10.58;6.30;;;;;;;14.57;36.21;101114.28;1721499;83;21036;-76
2021/10/11 10:50:12;;;;;;;47.43;15.32;;;;;;;14.56;35.98;101103.22;1720114;82;21038;-76
2021/10/11 10:52:38;;;;;;;31.57;11.70;;;;;;;14.45;35.97;101102.41;1721563;83;21441;-77
2021/10/11 10:55:05;;;;;;;21.42;9.70;;;;;;;14.38;36.17;101086.78;1722366;83;21050;-77
2021/10/11 10:57:32;;;;;;;34.67;11.25;;;;;;;14.37;36.41;101077.91;1722849;82;20984;-77
2021/10/11 11:00:02;;;;;;;37.95;10.68;;;;;;;14.41;36.30;101077.02;1723858;83;20987;-80
2021/10/11 11:02:31;;;;;;;41.75;13.53;;;;;;;14.44;36.29;101072.58;1725286;83;21023;-76
2021/10/11 11:05:03;;;;;;;15.88;9.23;;;;;;;14.47;36.18;101069.52;1721546;83;21056;-77
2021/10/11 11:07:36;;;;;;;16.80;8.13;;;;;;;14.46;36.05;101051.75;1722625;83;21072;-78
2021/10/11 11:10:13;;;;;;;18.80;8.83;;;;;;;14.46;36.19;101057.64;1722399;83;21000;-78
2021/10/11 11:12:44;;;;;;;39.05;13.05;;;;;;;14.50;36.31;101048.17;1726346;82;20970;-78
2021/10/11 11:15:34;;;;;;;21.10;8.85;;;;;;;14.57;36.10;101047.21;1752489;82;21010;-79
2021/10/11 11:18:04;;;;;;;11.85;6.65;;;;;;;14.62;35.60;101043.10;1740685;82;21011;-79
2021/10/11 11:20:35;;;;;;;12.73;7.30;;;;;;;14.61;35.28;101038.26;1748983;82;20971;-78
2021/10/11 11:23:09;;;;;;;7.53;5.95;;;;;;;14.58;35.54;101033.30;1721940;82;20966;-79
2021/10/11 11:25:38;;;;;;;7.25;6.00;;;;;;;14.57;35.57;101036.48;1719713;83;21054;-75